sensor_id;sensor_type;location;lat;lon;timestamp;pressure;altitude;pressure_sealevel;temperature;humidity
68456;BME280;55437;55.046;38.838;2023-05-19T00:02:09;100489.44;;;15.64;69.21
68456;BME280;55437;55.046;38.838;2023-05-19T00:04:35;100481.78;;;15.61;69.20
68456;BME280;55437;55.046;38.838;2023-05-19T00:07:01;100491.28;;;15.60;69.48
68456;BME280;55437;55.046;38.838;2023-05-19T00:09:27;100482.94;;;15.54;69.86
68456;BME280;55437;55.046;38.838;2023-05-19T00:11:54;100479.56;;;15.52;69.88
68456;BME280;55437;55.046;38.838;2023-05-19T00:14:21;100491.59;;;15.53;70.12
68456;BME280;55437;55.046;38.838;2023-05-19T00:16:47;100493.41;;;15.50;70.24
68456;BME280;55437;55.046;38.838;2023-05-19T00:19:13;100488.34;;;15.47;70.20
68456;BME280;55437;55.046;38.838;2023-05-19T00:21:38;100488.41;;;15.46;70.17
68456;BME280;55437;55.046;38.838;2023-05-19T00:24:06;100499.69;;;15.45;70.42
68456;BME280;55437;55.046;38.838;2023-05-19T00:26:32;100497.00;;;15.46;70.45
68456;BME280;55437;55.046;38.838;2023-05-19T00:29:02;100497.09;;;15.45;70.49
68456;BME280;55437;55.046;38.838;2023-05-19T00:31:28;100505.81;;;15.42;70.66
68456;BME280;55437;55.046;38.838;2023-05-19T00:33:54;100501.63;;;15.40;70.80
68456;BME280;55437;55.046;38.838;2023-05-19T00:36:19;100496.50;;;15.38;70.85
68456;BME280;55437;55.046;38.838;2023-05-19T00:38:45;100507.63;;;15.40;70.72
68456;BME280;55437;55.046;38.838;2023-05-19T00:41:11;100508.59;;;15.38;70.82
68456;BME280;55437;55.046;38.838;2023-05-19T00:43:37;100504.38;;;15.35;71.04
68456;BME280;55437;55.046;38.838;2023-05-19T00:46:02;100507.03;;;15.34;71.17
68456;BME280;55437;55.046;38.838;2023-05-19T00:48:28;100512.34;;;15.31;71.38
68456;BME280;55437;55.046;38.838;2023-05-19T00:50:55;100511.63;;;15.27;71.51
68456;BME280;55437;55.046;38.838;2023-05-19T00:53:26;100509.03;;;15.27;71.62
68456;BME280;55437;55.046;38.838;2023-05-19T00:55:53;100504.69;;;15.28;71.57
68456;BME280;55437;55.046;38.838;2023-05-19T00:58:19;100508.97;;;15.29;71.59
68456;BME280;55437;55.046;38.838;2023-05-19T01:00:45;100513.25;;;15.30;71.64
68456;BME280;55437;55.046;38.838;2023-05-19T01:03:10;100517.53;;;15.31;71.57
68456;BME280;55437;55.046;38.838;2023-05-19T01:05:40;100516.63;;;15.32;71.60
68456;BME280;55437;55.046;38.838;2023-05-19T01:08:07;100511.50;;;15.30;71.71
68456;BME280;55437;55.046;38.838;2023-05-19T01:10:33;100511.63;;;15.27;71.77
68456;BME280;55437;55.046;38.838;2023-05-19T01:13:00;100508.25;;;15.25;72.02
68456;BME280;55437;55.046;38.838;2023-05-19T01:15:26;100505.88;;;15.21;72.29
68456;BME280;55437;55.046;38.838;2023-05-19T01:18:00;100510.94;;;15.22;72.51
68456;BME280;55437;55.046;38.838;2023-05-19T01:20:43;100510.25;;;15.19;72.54
68456;BME280;55437;55.046;38.838;2023-05-19T01:30:59;100512.84;;;15.19;72.74
68456;BME280;55437;55.046;38.838;2023-05-19T01:33:28;100508.34;;;15.22;72.78
68456;BME280;55437;55.046;38.838;2023-05-19T01:35:54;100513.38;;;15.27;72.66
68456;BME280;55437;55.046;38.838;2023-05-19T01:38:24;100508.97;;;15.29;72.74
68456;BME280;55437;55.046;38.838;2023-05-19T01:40:51;100512.41;;;15.29;72.88
68456;BME280;55437;55.046;38.838;2023-05-19T01:43:23;100505.47;;;15.30;73.13
68456;BME280;55437;55.046;38.838;2023-05-19T01:45:50;100512.13;;;15.35;72.93
68456;BME280;55437;55.046;38.838;2023-05-19T01:48:17;100510.16;;;15.42;72.78
68456;BME280;55437;55.046;38.838;2023-05-19T01:50:44;100507.88;;;15.56;72.52
68456;BME280;55437;55.046;38.838;2023-05-19T01:53:10;100511.47;;;15.72;72.06
68456;BME280;55437;55.046;38.838;2023-05-19T01:55:46;100511.03;;;15.83;71.68
68456;BME280;55437;55.046;38.838;2023-05-19T01:58:24;100508.00;;;15.94;71.28
68456;BME280;55437;55.046;38.838;2023-05-19T02:01:22;100501.97;;;15.93;71.13
68456;BME280;55437;55.046;38.838;2023-05-19T02:04:12;100502.81;;;15.94;71.33
68456;BME280;55437;55.046;38.838;2023-05-19T02:07:02;100508.81;;;15.94;71.21
68456;BME280;55437;55.046;38.838;2023-05-19T02:12:39;100504.78;;;16.07;70.74
68456;BME280;55437;55.046;38.838;2023-05-19T02:15:21;100504.19;;;16.21;70.55
68456;BME280;55437;55.046;38.838;2023-05-19T02:17:49;100500.78;;;16.39;70.14
68456;BME280;55437;55.046;38.838;2023-05-19T02:20:37;100504.34;;;16.55;69.34
68456;BME280;55437;55.046;38.838;2023-05-19T02:23:05;100503.19;;;16.63;69.30
68456;BME280;55437;55.046;38.838;2023-05-19T02:25:31;100504.38;;;16.74;69.00
68456;BME280;55437;55.046;38.838;2023-05-19T02:27:58;100508.97;;;16.86;68.77
68456;BME280;55437;55.046;38.838;2023-05-19T02:30:28;100518.72;;;17.17;68.04
68456;BME280;55437;55.046;38.838;2023-05-19T02:32:59;100511.97;;;17.49;67.24
68456;BME280;55437;55.046;38.838;2023-05-19T02:35:25;100513.22;;;17.77;66.29
68456;BME280;55437;55.046;38.838;2023-05-19T02:37:52;100517.06;;;18.03;65.63
68456;BME280;55437;55.046;38.838;2023-05-19T02:40:18;100509.31;;;18.18;64.93
68456;BME280;55437;55.046;38.838;2023-05-19T02:42:44;100513.31;;;18.41;64.60
68456;BME280;55437;55.046;38.838;2023-05-19T02:45:10;100513.16;;;18.60;63.94
68456;BME280;55437;55.046;38.838;2023-05-19T02:47:39;100519.13;;;18.78;63.22
68456;BME280;55437;55.046;38.838;2023-05-19T02:50:06;100525.00;;;18.97;62.74
68456;BME280;55437;55.046;38.838;2023-05-19T02:52:32;100536.75;;;19.20;62.34
68456;BME280;55437;55.046;38.838;2023-05-19T02:54:59;100525.88;;;19.43;61.39
68456;BME280;55437;55.046;38.838;2023-05-19T02:57:25;100541.38;;;19.60;60.90
68456;BME280;55437;55.046;38.838;2023-05-19T02:59:51;100534.22;;;19.64;60.65
68456;BME280;55437;55.046;38.838;2023-05-19T03:02:17;100538.13;;;19.71;60.58
68456;BME280;55437;55.046;38.838;2023-05-19T03:04:43;100539.84;;;19.56;60.67
68456;BME280;55437;55.046;38.838;2023-05-19T03:07:10;100542.59;;;19.55;60.67
68456;BME280;55437;55.046;38.838;2023-05-19T03:09:38;100542.38;;;19.58;60.54
68456;BME280;55437;55.046;38.838;2023-05-19T03:12:04;100547.41;;;19.61;60.47
68456;BME280;55437;55.046;38.838;2023-05-19T03:14:33;100549.81;;;19.50;60.63
68456;BME280;55437;55.046;38.838;2023-05-19T03:16:59;100549.88;;;19.32;61.06
68456;BME280;55437;55.046;38.838;2023-05-19T03:19:26;100536.06;;;19.16;61.53
68456;BME280;55437;55.046;38.838;2023-05-19T03:21:51;100538.94;;;19.12;61.76
68456;BME280;55437;55.046;38.838;2023-05-19T03:24:17;100543.03;;;19.16;61.89
68456;BME280;55437;55.046;38.838;2023-05-19T03:26:43;100538.66;;;19.32;61.63
68456;BME280;55437;55.046;38.838;2023-05-19T03:29:09;100537.16;;;19.58;61.24
68456;BME280;55437;55.046;38.838;2023-05-19T03:31:35;100546.19;;;19.96;60.32
68456;BME280;55437;55.046;38.838;2023-05-19T03:34:03;100544.72;;;20.06;60.15
68456;BME280;55437;55.046;38.838;2023-05-19T03:36:28;100549.69;;;19.81;60.64
68456;BME280;55437;55.046;38.838;2023-05-19T03:38:57;100555.09;;;19.78;60.68
68456;BME280;55437;55.046;38.838;2023-05-19T03:41:23;100550.81;;;19.77;60.66
68456;BME280;55437;55.046;38.838;2023-05-19T03:43:49;100554.16;;;19.65;61.11
68456;BME280;55437;55.046;38.838;2023-05-19T03:46:15;100555.78;;;19.52;61.42
68456;BME280;55437;55.046;38.838;2023-05-19T03:49:00;100553.00;;;19.39;61.83
68456;BME280;55437;55.046;38.838;2023-05-19T03:51:45;100555.38;;;19.28;62.21
68456;BME280;55437;55.046;38.838;2023-05-19T03:54:34;100552.09;;;19.24;62.11
68456;BME280;55437;55.046;38.838;2023-05-19T03:57:00;100555.38;;;19.12;62.56
68456;BME280;55437;55.046;38.838;2023-05-19T03:59:27;100559.66;;;19.13;62.69
68456;BME280;55437;55.046;38.838;2023-05-19T04:01:52;100554.47;;;19.13;62.60
68456;BME280;55437;55.046;38.838;2023-05-19T04:04:18;100561.94;;;19.19;62.67
68456;BME280;55437;55.046;38.838;2023-05-19T04:06:44;100560.81;;;19.23;62.67
68456;BME280;55437;55.046;38.838;2023-05-19T04:09:12;100567.41;;;19.15;62.89
68456;BME280;55437;55.046;38.838;2023-05-19T04:11:38;100564.38;;;19.06;62.98
68456;BME280;55437;55.046;38.838;2023-05-19T04:14:05;100569.31;;;19.11;63.15
68456;BME280;55437;55.046;38.838;2023-05-19T04:16:31;100566.31;;;19.03;63.19
68456;BME280;55437;55.046;38.838;2023-05-19T04:19:16;100573.88;;;18.92;63.80
68456;BME280;55437;55.046;38.838;2023-05-19T04:21:42;100567.25;;;18.70;64.33
68456;BME280;55437;55.046;38.838;2023-05-19T04:24:08;100572.69;;;18.82;64.38
68456;BME280;55437;55.046;38.838;2023-05-19T04:26:35;100558.50;;;18.87;64.22
68456;BME280;55437;55.046;38.838;2023-05-19T04:29:02;100565.16;;;18.93;64.26
68456;BME280;55437;55.046;38.838;2023-05-19T04:31:29;100564.06;;;18.81;64.45
68456;BME280;55437;55.046;38.838;2023-05-19T04:33:54;100564.97;;;18.80;64.51
68456;BME280;55437;55.046;38.838;2023-05-19T04:36:20;100564.06;;;18.81;64.58
68456;BME280;55437;55.046;38.838;2023-05-19T04:38:48;100569.34;;;18.80;64.53
68456;BME280;55437;55.046;38.838;2023-05-19T04:41:15;100561.53;;;18.80;64.76
68456;BME280;55437;55.046;38.838;2023-05-19T04:43:42;100572.78;;;18.80;64.76
68456;BME280;55437;55.046;38.838;2023-05-19T04:46:10;100569.25;;;18.81;64.91
68456;BME280;55437;55.046;38.838;2023-05-19T04:48:37;100566.06;;;18.76;64.82
68456;BME280;55437;55.046;38.838;2023-05-19T04:51:04;100570.09;;;18.82;64.80
68456;BME280;55437;55.046;38.838;2023-05-19T04:53:31;100568.50;;;18.79;64.89
68456;BME280;55437;55.046;38.838;2023-05-19T04:55:57;100576.38;;;18.78;64.86
68456;BME280;55437;55.046;38.838;2023-05-19T04:58:25;100574.91;;;18.56;65.38
68456;BME280;55437;55.046;38.838;2023-05-19T05:00:52;100573.75;;;18.62;65.48
68456;BME280;55437;55.046;38.838;2023-05-19T05:03:23;100576.88;;;18.68;65.27
68456;BME280;55437;55.046;38.838;2023-05-19T05:05:50;100573.53;;;18.66;65.39
68456;BME280;55437;55.046;38.838;2023-05-19T05:08:17;100577.03;;;18.65;65.68
68456;BME280;55437;55.046;38.838;2023-05-19T05:10:49;100578.97;;;18.62;65.82
68456;BME280;55437;55.046;38.838;2023-05-19T05:13:21;100587.53;;;18.64;65.71
68456;BME280;55437;55.046;38.838;2023-05-19T05:15:48;100590.81;;;18.50;65.86
68456;BME280;55437;55.046;38.838;2023-05-19T05:18:15;100592.44;;;18.35;66.25
68456;BME280;55437;55.046;38.838;2023-05-19T05:20:41;100590.03;;;18.32;66.11
68456;BME280;55437;55.046;38.838;2023-05-19T05:23:09;100600.50;;;18.31;66.29
68456;BME280;55437;55.046;38.838;2023-05-19T05:25:41;100603.59;;;18.22;66.57
68456;BME280;55437;55.046;38.838;2023-05-19T05:28:07;100601.44;;;18.13;66.52
68456;BME280;55437;55.046;38.838;2023-05-19T05:30:35;100606.88;;;18.08;66.65
68456;BME280;55437;55.046;38.838;2023-05-19T05:33:02;100600.56;;;17.96;67.02
68456;BME280;55437;55.046;38.838;2023-05-19T05:35:32;100607.44;;;17.97;67.19
68456;BME280;55437;55.046;38.838;2023-05-19T05:37:58;100604.34;;;17.89;67.18
68456;BME280;55437;55.046;38.838;2023-05-19T05:40:24;100611.56;;;17.84;67.38
68456;BME280;55437;55.046;38.838;2023-05-19T05:42:52;100611.38;;;17.87;67.19
68456;BME280;55437;55.046;38.838;2023-05-19T05:45:24;100618.25;;;17.88;66.90
68456;BME280;55437;55.046;38.838;2023-05-19T05:47:51;100620.47;;;17.79;66.70
68456;BME280;55437;55.046;38.838;2023-05-19T05:50:17;100622.56;;;17.72;66.92
68456;BME280;55437;55.046;38.838;2023-05-19T05:52:46;100626.91;;;17.72;66.75
68456;BME280;55437;55.046;38.838;2023-05-19T05:55:14;100626.84;;;17.54;67.20
68456;BME280;55437;55.046;38.838;2023-05-19T05:57:42;100628.41;;;17.40;67.49
68456;BME280;55437;55.046;38.838;2023-05-19T06:00:08;100628.41;;;17.40;67.37
68456;BME280;55437;55.046;38.838;2023-05-19T06:02:44;100621.63;;;17.37;67.31
68456;BME280;55437;55.046;38.838;2023-05-19T06:05:15;100632.13;;;17.34;67.27
68456;BME280;55437;55.046;38.838;2023-05-19T06:07:42;100623.00;;;17.44;66.90
68456;BME280;55437;55.046;38.838;2023-05-19T06:10:09;100624.38;;;17.51;66.66
68456;BME280;55437;55.046;38.838;2023-05-19T06:12:35;100640.84;;;17.33;67.23
68456;BME280;55437;55.046;38.838;2023-05-19T06:15:06;100622.03;;;17.47;66.69
68456;BME280;55437;55.046;38.838;2023-05-19T06:18:07;100633.38;;;17.63;66.25
68456;BME280;55437;55.046;38.838;2023-05-19T06:20:33;100633.84;;;17.71;65.89
68456;BME280;55437;55.046;38.838;2023-05-19T06:22:59;100637.81;;;17.78;65.88
68456;BME280;55437;55.046;38.838;2023-05-19T06:25:26;100642.16;;;17.78;65.70
68456;BME280;55437;55.046;38.838;2023-05-19T06:27:52;100638.34;;;17.68;66.08
68456;BME280;55437;55.046;38.838;2023-05-19T06:30:19;100643.19;;;17.56;66.13
68456;BME280;55437;55.046;38.838;2023-05-19T06:33:02;100642.47;;;17.53;66.67
68456;BME280;55437;55.046;38.838;2023-05-19T06:35:29;100648.75;;;17.49;66.49
68456;BME280;55437;55.046;38.838;2023-05-19T06:37:55;100655.28;;;17.20;67.27
68456;BME280;55437;55.046;38.838;2023-05-19T06:40:22;100657.47;;;17.10;67.35
68456;BME280;55437;55.046;38.838;2023-05-19T06:42:48;100665.53;;;17.04;67.69
68456;BME280;55437;55.046;38.838;2023-05-19T06:45:19;100663.22;;;16.98;67.77
68456;BME280;55437;55.046;38.838;2023-05-19T06:47:48;100666.03;;;16.93;67.46
68456;BME280;55437;55.046;38.838;2023-05-19T06:50:14;100667.94;;;16.90;67.48
68456;BME280;55437;55.046;38.838;2023-05-19T06:52:41;100669.75;;;16.88;67.59
68456;BME280;55437;55.046;38.838;2023-05-19T06:55:08;100675.13;;;16.83;67.62
68456;BME280;55437;55.046;38.838;2023-05-19T06:57:37;100685.47;;;16.65;67.87
68456;BME280;55437;55.046;38.838;2023-05-19T07:00:04;100680.00;;;16.50;68.18
68456;BME280;55437;55.046;38.838;2023-05-19T07:02:34;100686.50;;;16.40;68.55
68456;BME280;55437;55.046;38.838;2023-05-19T07:05:01;100677.22;;;16.35;68.62
68456;BME280;55437;55.046;38.838;2023-05-19T07:07:29;100683.69;;;16.25;68.69
68456;BME280;55437;55.046;38.838;2023-05-19T07:09:56;100678.06;;;16.15;68.74
68456;BME280;55437;55.046;38.838;2023-05-19T07:12:21;100692.03;;;16.11;68.79
68456;BME280;55437;55.046;38.838;2023-05-19T07:14:47;100689.63;;;16.06;68.83
68456;BME280;55437;55.046;38.838;2023-05-19T07:17:14;100694.44;;;16.15;68.36
68456;BME280;55437;55.046;38.838;2023-05-19T07:19:43;100695.47;;;16.11;68.37
68456;BME280;55437;55.046;38.838;2023-05-19T07:22:10;100687.47;;;16.17;67.90
68456;BME280;55437;55.046;38.838;2023-05-19T07:24:35;100688.88;;;16.25;67.98
68456;BME280;55437;55.046;38.838;2023-05-19T07:27:02;100693.28;;;16.23;67.82
68456;BME280;55437;55.046;38.838;2023-05-19T07:29:28;100699.31;;;16.23;67.95
68456;BME280;55437;55.046;38.838;2023-05-19T07:31:53;100691.81;;;16.37;67.47
68456;BME280;55437;55.046;38.838;2023-05-19T07:34:25;100695.94;;;16.62;67.10
68456;BME280;55437;55.046;38.838;2023-05-19T07:36:51;100692.56;;;16.80;66.58
68456;BME280;55437;55.046;38.838;2023-05-19T07:39:16;100690.28;;;16.92;66.14
68456;BME280;55437;55.046;38.838;2023-05-19T07:41:42;100699.47;;;17.18;65.28
68456;BME280;55437;55.046;38.838;2023-05-19T07:44:08;100696.00;;;17.38;64.74
68456;BME280;55437;55.046;38.838;2023-05-19T07:46:35;100690.13;;;17.52;64.31
68456;BME280;55437;55.046;38.838;2023-05-19T07:51:47;100688.38;;;17.52;63.21
68456;BME280;55437;55.046;38.838;2023-05-19T07:54:13;100692.59;;;17.55;62.49
68456;BME280;55437;55.046;38.838;2023-05-19T07:56:39;100693.31;;;17.58;62.13
68456;BME280;55437;55.046;38.838;2023-05-19T07:59:05;100689.59;;;17.64;61.79
68456;BME280;55437;55.046;38.838;2023-05-19T08:01:32;100697.25;;;17.67;61.32
68456;BME280;55437;55.046;38.838;2023-05-19T08:03:58;100692.47;;;17.58;61.51
68456;BME280;55437;55.046;38.838;2023-05-19T08:06:24;100689.22;;;17.53;61.23
68456;BME280;55437;55.046;38.838;2023-05-19T08:08:50;100698.16;;;17.47;61.05
68456;BME280;55437;55.046;38.838;2023-05-19T08:14:02;100699.00;;;17.29;60.82
68456;BME280;55437;55.046;38.838;2023-05-19T08:16:28;100697.75;;;17.38;60.46
68456;BME280;55437;55.046;38.838;2023-05-19T08:18:54;100701.88;;;17.42;60.21
68456;BME280;55437;55.046;38.838;2023-05-19T08:21:20;100704.06;;;17.51;59.92
68456;BME280;55437;55.046;38.838;2023-05-19T08:23:47;100695.97;;;17.57;59.46
68456;BME280;55437;55.046;38.838;2023-05-19T08:26:12;100714.13;;;17.76;59.33
68456;BME280;55437;55.046;38.838;2023-05-19T08:28:38;100699.72;;;17.87;59.01
68456;BME280;55437;55.046;38.838;2023-05-19T08:31:04;100708.47;;;17.68;58.97
68456;BME280;55437;55.046;38.838;2023-05-19T08:33:30;100707.56;;;17.50;58.95
68456;BME280;55437;55.046;38.838;2023-05-19T08:35:57;100709.84;;;17.56;58.92
68456;BME280;55437;55.046;38.838;2023-05-19T08:38:26;100710.38;;;17.45;58.67
68456;BME280;55437;55.046;38.838;2023-05-19T08:40:52;100705.09;;;17.47;58.95
68456;BME280;55437;55.046;38.838;2023-05-19T08:43:19;100706.72;;;17.49;58.51
68456;BME280;55437;55.046;38.838;2023-05-19T08:45:44;100711.69;;;17.54;58.49
68456;BME280;55437;55.046;38.838;2023-05-19T08:48:16;100719.38;;;17.38;58.59
68456;BME280;55437;55.046;38.838;2023-05-19T08:50:50;100719.41;;;17.18;58.93
68456;BME280;55437;55.046;38.838;2023-05-19T08:53:19;100717.72;;;17.17;58.88
68456;BME280;55437;55.046;38.838;2023-05-19T08:58:40;100727.13;;;17.19;59.05
68456;BME280;55437;55.046;38.838;2023-05-19T09:01:10;100721.94;;;17.19;59.34
68456;BME280;55437;55.046;38.838;2023-05-19T09:03:38;100730.13;;;17.29;58.94
68456;BME280;55437;55.046;38.838;2023-05-19T09:06:05;100724.63;;;17.37;59.00
68456;BME280;55437;55.046;38.838;2023-05-19T09:08:33;100722.09;;;17.35;58.99
68456;BME280;55437;55.046;38.838;2023-05-19T09:10:59;100733.38;;;17.34;58.84
68456;BME280;55437;55.046;38.838;2023-05-19T09:13:25;100737.88;;;17.31;58.75
68456;BME280;55437;55.046;38.838;2023-05-19T09:16:02;100732.81;;;17.27;58.71
68456;BME280;55437;55.046;38.838;2023-05-19T09:18:28;100733.28;;;17.17;58.84
68456;BME280;55437;55.046;38.838;2023-05-19T09:21:00;100734.00;;;17.20;58.71
68456;BME280;55437;55.046;38.838;2023-05-19T09:23:30;100734.66;;;17.25;58.83
68456;BME280;55437;55.046;38.838;2023-05-19T09:26:02;100731.97;;;17.27;58.70
68456;BME280;55437;55.046;38.838;2023-05-19T09:28:30;100732.94;;;17.43;58.36
68456;BME280;55437;55.046;38.838;2023-05-19T09:31:01;100731.28;;;17.42;58.58
68456;BME280;55437;55.046;38.838;2023-05-19T09:33:27;100739.28;;;17.38;58.26
68456;BME280;55437;55.046;38.838;2023-05-19T09:35:56;100733.16;;;17.20;58.69
68456;BME280;55437;55.046;38.838;2023-05-19T09:38:24;100736.91;;;16.94;58.73
68456;BME280;55437;55.046;38.838;2023-05-19T09:40:51;100744.50;;;16.99;58.58
68456;BME280;55437;55.046;38.838;2023-05-19T09:43:36;100746.72;;;16.87;58.58
68456;BME280;55437;55.046;38.838;2023-05-19T09:46:04;100738.94;;;16.87;58.60
68456;BME280;55437;55.046;38.838;2023-05-19T09:48:30;100748.09;;;16.76;58.44
68456;BME280;55437;55.046;38.838;2023-05-19T09:50:59;100739.41;;;16.77;58.54
68456;BME280;55437;55.046;38.838;2023-05-19T09:53:25;100746.91;;;16.83;58.64
68456;BME280;55437;55.046;38.838;2023-05-19T09:55:54;100739.91;;;16.85;58.83
68456;BME280;55437;55.046;38.838;2023-05-19T09:58:23;100749.38;;;16.86;58.74
68456;BME280;55437;55.046;38.838;2023-05-19T10:00:50;100742.84;;;16.55;58.79
68456;BME280;55437;55.046;38.838;2023-05-19T10:03:20;100742.47;;;16.44;58.79
68456;BME280;55437;55.046;38.838;2023-05-19T10:05:47;100738.34;;;16.40;58.76
68456;BME280;55437;55.046;38.838;2023-05-19T10:08:15;100734.97;;;16.38;58.88
68456;BME280;55437;55.046;38.838;2023-05-19T10:10:45;100738.19;;;16.43;58.87
68456;BME280;55437;55.046;38.838;2023-05-19T10:13:12;100730.78;;;16.54;58.75
68456;BME280;55437;55.046;38.838;2023-05-19T10:15:40;100735.06;;;16.55;58.48
68456;BME280;55437;55.046;38.838;2023-05-19T10:18:08;100737.03;;;16.50;58.69
68456;BME280;55437;55.046;38.838;2023-05-19T10:20:34;100744.69;;;16.53;58.77
68456;BME280;55437;55.046;38.838;2023-05-19T10:23:00;100743.06;;;16.51;58.67
68456;BME280;55437;55.046;38.838;2023-05-19T10:25:29;100743.63;;;16.57;58.70
68456;BME280;55437;55.046;38.838;2023-05-19T10:27:59;100750.72;;;16.54;58.67
68456;BME280;55437;55.046;38.838;2023-05-19T10:30:33;100747.81;;;16.62;58.26
68456;BME280;55437;55.046;38.838;2023-05-19T10:33:02;100743.44;;;16.64;58.48
68456;BME280;55437;55.046;38.838;2023-05-19T10:38:57;100737.84;;;16.73;58.29
68456;BME280;55437;55.046;38.838;2023-05-19T10:47:28;100746.56;;;16.90;57.49
68456;BME280;55437;55.046;38.838;2023-05-19T10:49:55;100737.81;;;16.93;57.08
68456;BME280;55437;55.046;38.838;2023-05-19T10:52:22;100750.09;;;16.89;56.66
68456;BME280;55437;55.046;38.838;2023-05-19T10:54:50;100744.59;;;16.77;56.88
68456;BME280;55437;55.046;38.838;2023-05-19T10:57:24;100759.31;;;16.76;56.91
68456;BME280;55437;55.046;38.838;2023-05-19T11:00:30;100756.66;;;16.78;56.84
68456;BME280;55437;55.046;38.838;2023-05-19T11:03:16;100758.31;;;16.79;56.98
68456;BME280;55437;55.046;38.838;2023-05-19T11:05:48;100757.34;;;16.81;56.70
68456;BME280;55437;55.046;38.838;2023-05-19T11:08:31;100759.50;;;16.72;56.99
68456;BME280;55437;55.046;38.838;2023-05-19T11:11:19;100756.34;;;16.65;57.25
68456;BME280;55437;55.046;38.838;2023-05-19T11:13:46;100764.06;;;16.45;58.12
68456;BME280;55437;55.046;38.838;2023-05-19T11:16:13;100768.53;;;16.62;57.61
68456;BME280;55437;55.046;38.838;2023-05-19T11:18:39;100768.53;;;16.62;57.43
68456;BME280;55437;55.046;38.838;2023-05-19T11:21:05;100777.78;;;16.47;57.99
68456;BME280;55437;55.046;38.838;2023-05-19T11:23:37;100775.47;;;16.61;57.98
68456;BME280;55437;55.046;38.838;2023-05-19T11:26:05;100763.50;;;16.79;57.50
68456;BME280;55437;55.046;38.838;2023-05-19T11:28:32;100771.25;;;17.19;56.74
68456;BME280;55437;55.046;38.838;2023-05-19T11:30:59;100774.56;;;17.42;56.47
68456;BME280;55437;55.046;38.838;2023-05-19T11:33:25;100774.28;;;17.29;56.39
68456;BME280;55437;55.046;38.838;2023-05-19T11:35:54;100767.06;;;16.97;56.75
68456;BME280;55437;55.046;38.838;2023-05-19T11:38:22;100779.22;;;16.76;57.29
68456;BME280;55437;55.046;38.838;2023-05-19T11:40:51;100779.03;;;16.58;57.58
68456;BME280;55437;55.046;38.838;2023-05-19T11:43:17;100778.97;;;16.60;57.48
68456;BME280;55437;55.046;38.838;2023-05-19T11:45:44;100769.56;;;16.57;57.44
68456;BME280;55437;55.046;38.838;2023-05-19T11:48:12;100770.75;;;16.50;57.56
68456;BME280;55437;55.046;38.838;2023-05-19T11:50:41;100767.09;;;16.34;57.94
68456;BME280;55437;55.046;38.838;2023-05-19T11:53:10;100774.00;;;16.13;58.40
68456;BME280;55437;55.046;38.838;2023-05-19T11:55:46;100774.53;;;16.00;58.96
68456;BME280;55437;55.046;38.838;2023-05-19T11:58:12;100774.78;;;15.94;59.15
68456;BME280;55437;55.046;38.838;2023-05-19T12:00:40;100777.53;;;15.89;59.10
68456;BME280;55437;55.046;38.838;2023-05-19T12:03:06;100775.69;;;15.93;59.03
68456;BME280;55437;55.046;38.838;2023-05-19T12:05:32;100780.97;;;16.11;58.45
68456;BME280;55437;55.046;38.838;2023-05-19T12:08:01;100768.94;;;16.31;57.83
68456;BME280;55437;55.046;38.838;2023-05-19T12:10:28;100781.06;;;16.52;57.44
68456;BME280;55437;55.046;38.838;2023-05-19T12:12:54;100782.13;;;16.68;57.00
68456;BME280;55437;55.046;38.838;2023-05-19T12:15:22;100778.69;;;16.88;56.55
68456;BME280;55437;55.046;38.838;2023-05-19T12:17:59;100781.00;;;16.94;56.58
68456;BME280;55437;55.046;38.838;2023-05-19T12:20:44;100784.06;;;16.83;56.53
68456;BME280;55437;55.046;38.838;2023-05-19T12:23:10;100786.78;;;16.80;56.89
68456;BME280;55437;55.046;38.838;2023-05-19T12:25:36;100784.41;;;16.76;56.92
68456;BME280;55437;55.046;38.838;2023-05-19T12:28:02;100785.50;;;16.70;57.31
68456;BME280;55437;55.046;38.838;2023-05-19T12:30:29;100784.59;;;16.71;57.27
68456;BME280;55437;55.046;38.838;2023-05-19T12:32:56;100787.25;;;16.70;57.33
68456;BME280;55437;55.046;38.838;2023-05-19T12:35:26;100786.94;;;16.55;57.96
68456;BME280;55437;55.046;38.838;2023-05-19T12:37:53;100778.41;;;16.53;58.22
68456;BME280;55437;55.046;38.838;2023-05-19T12:40:19;100783.31;;;16.60;58.01
68456;BME280;55437;55.046;38.838;2023-05-19T12:42:46;100787.19;;;16.71;58.00
68456;BME280;55437;55.046;38.838;2023-05-19T12:45:13;100783.75;;;16.71;57.61
68456;BME280;55437;55.046;38.838;2023-05-19T12:47:39;100785.75;;;16.84;57.60
68456;BME280;55437;55.046;38.838;2023-05-19T12:50:07;100782.50;;;17.00;57.58
68456;BME280;55437;55.046;38.838;2023-05-19T12:52:45;100783.00;;;17.08;57.31
68456;BME280;55437;55.046;38.838;2023-05-19T12:55:11;100787.41;;;17.26;56.90
68456;BME280;55437;55.046;38.838;2023-05-19T12:57:47;100787.06;;;17.34;56.75
68456;BME280;55437;55.046;38.838;2023-05-19T13:00:16;100772.25;;;17.36;56.51
68456;BME280;55437;55.046;38.838;2023-05-19T13:03:06;100782.28;;;17.43;56.60
68456;BME280;55437;55.046;38.838;2023-05-19T13:05:38;100783.41;;;17.38;56.60
68456;BME280;55437;55.046;38.838;2023-05-19T13:08:09;100776.94;;;17.27;56.54
68456;BME280;55437;55.046;38.838;2023-05-19T13:10:38;100780.38;;;17.28;56.45
68456;BME280;55437;55.046;38.838;2023-05-19T13:13:05;100774.13;;;17.32;56.64
68456;BME280;55437;55.046;38.838;2023-05-19T13:15:37;100774.06;;;17.34;56.53
68456;BME280;55437;55.046;38.838;2023-05-19T13:18:07;100780.53;;;17.25;56.28